Time;durP1;ratioP1;P1;durP2;ratioP2;P2;SDS_P1;SDS_P2;PMS_P1;PMS_P2;Temp;Humidity;BMP_temperature;BMP_pressure;BME280_temperature;BME280_humidity;BME280_pressure;Samples;Min_cycle;Max_cycle;Signal;HPM_P1;HPM_P2
2022/06/01 00:01:53;;;;;;;2.23;1.90;;;21.70;38.90;;;;;;8296759;28;20034;-41
2022/06/01 00:05:53;;;;;;;3.27;2.00;;;21.70;38.90;;;;;;8299650;28;20033;-41
2022/06/01 00:09:55;;;;;;;2.75;2.17;;;21.70;38.90;;;;;;8306739;28;20288;-41
2022/06/01 00:13:56;;;;;;;2.30;2.10;;;21.70;38.90;;;;;;8295724;28;20061;-40
2022/06/01 00:17:58;;;;;;;2.63;1.67;;;21.70;38.90;;;;;;8295687;28;20029;-40
2022/06/01 00:22:11;;;;;;;2.50;1.85;;;21.70;38.90;;;;;;8295339;28;20034;-40
2022/06/01 00:26:12;;;;;;;1.80;1.65;;;21.70;38.90;;;;;;8295687;28;20088;-40
2022/06/01 00:30:14;;;;;;;2.30;1.80;;;21.70;38.90;;;;;;8294827;28;20526;-41
2022/06/01 00:34:15;;;;;;;2.88;2.08;;;21.70;38.90;;;;;;8295414;28;20034;-40
2022/06/01 00:38:16;;;;;;;2.63;2.23;;;21.70;38.90;;;;;;8294653;28;20121;-40
2022/06/01 00:42:18;;;;;;;;;;;21.70;39.00;;;;;;8295068;28;20066;-40
2022/06/01 00:46:19;;;;;;;2.05;1.85;;;21.60;38.90;;;;;;8294561;28;20442;-40
2022/06/01 00:50:30;;;;;;;2.53;1.90;;;21.60;39.00;;;;;;8294809;28;20125;-40
2022/06/01 00:54:31;;;;;;;;;;;21.60;39.00;;;;;;8294655;28;20033;-40
2022/06/01 00:58:38;;;;;;;3.33;2.07;;;21.60;39.40;;;;;;8294546;28;19913;-40
2022/06/01 01:02:39;;;;;;;1.65;1.55;;;21.60;39.00;;;;;;8294644;28;20129;-40
2022/06/01 01:06:41;;;;;;;2.97;2.17;;;21.60;39.00;;;;;;8293898;28;20025;-40
2022/06/01 01:10:42;;;;;;;3.25;1.65;;;21.60;39.00;;;;;;8294092;28;20060;-39
2022/06/01 01:14:44;;;;;;;1.70;1.60;;;21.60;39.00;;;;;;8293891;28;20334;-40
2022/06/01 01:18:46;;;;;;;2.05;1.60;;;21.50;38.90;;;;;;8293421;28;20092;-40
2022/06/01 01:23:05;;;;;;;2.38;1.90;;;21.50;38.90;;;;;;8293695;28;20353;-40
2022/06/01 01:27:07;;;;;;;2.40;1.77;;;21.50;38.90;;;;;;8293231;28;20037;-40
2022/06/01 01:31:20;;;;;;;2.13;1.75;;;21.50;38.90;;;;;;8293791;28;20045;-40
2022/06/01 01:35:20;;;;;;;2.17;1.92;;;21.50;38.90;;;;;;8293729;28;20048;-40
2022/06/01 01:39:22;;;;;;;2.38;2.17;;;21.50;38.90;;;;;;8293038;28;20038;-40
2022/06/01 01:43:22;;;;;;;;;;;21.50;38.90;;;;;;8294123;28;20034;-41
2022/06/01 01:47:23;;;;;;;2.23;1.60;;;21.50;38.90;;;;;;8293264;28;20286;-41
2022/06/01 01:51:26;;;;;;;2.47;1.70;;;21.50;38.90;;;;;;8291356;28;20048;-40
2022/06/01 01:55:49;;;;;;;2.10;1.90;;;21.50;39.00;;;;;;8292927;28;20104;-41
2022/06/01 02:00:14;;;;;;;2.08;1.55;;;21.50;39.00;;;;;;8292473;28;20041;-41
2022/06/01 02:08:56;;;;;;;1.80;1.60;;;21.40;38.90;;;;;;8292353;28;20418;-41
2022/06/01 02:12:57;;;;;;;2.63;2.40;;;21.40;38.90;;;;;;8292378;28;20037;-41
2022/06/01 02:17:02;;;;;;;2.58;1.75;;;21.40;38.90;;;;;;8292455;28;20049;-41
2022/06/01 02:21:07;;;;;;;2.83;2.05;;;21.40;38.90;;;;;;8292367;28;20510;-41
2022/06/01 02:25:09;;;;;;;1.73;1.55;;;21.40;38.90;;;;;;8291871;28;20026;-40
2022/06/01 02:29:14;;;;;;;2.13;1.80;;;21.40;38.90;;;;;;8291916;28;20057;-41
2022/06/01 02:33:21;;;;;;;3.08;1.83;;;21.40;38.90;;;;;;8291529;28;20026;-41
2022/06/01 02:37:23;;;;;;;1.67;1.58;;;21.40;39.00;;;;;;8292071;28;20034;-41
2022/06/01 02:45:44;;;;;;;2.08;1.77;;;21.40;38.90;;;;;;8291175;28;20079;-41
2022/06/01 02:49:44;;;;;;;2.17;1.90;;;21.40;39.00;;;;;;8291421;28;20376;-41
2022/06/01 02:53:46;;;;;;;1.80;1.60;;;21.30;39.00;;;;;;8291602;28;20064;-41
2022/06/01 02:57:46;;;;;;;1.90;1.70;;;21.40;39.00;;;;;;8291582;28;20029;-41
2022/06/01 03:01:47;;;;;;;1.95;1.45;;;21.30;39.00;;;;;;8291216;28;20108;-41
2022/06/01 03:05:47;;;;;;;3.07;1.77;;;21.30;38.90;;;;;;8290978;28;20030;-41
2022/06/01 03:09:48;;;;;;;4.10;1.57;;;21.30;38.90;;;;;;8290815;28;20129;-41
2022/06/01 03:13:49;;;;;;;3.20;1.70;;;21.30;39.00;;;;;;8291067;28;20038;-41
2022/06/01 03:17:49;;;;;;;3.17;1.60;;;21.30;39.00;;;;;;8291640;28;20533;-40
2022/06/01 03:21:50;;;;;;;1.80;1.70;;;21.30;39.00;;;;;;8290265;28;20109;-41
2022/06/01 03:25:51;;;;;;;2.60;1.90;;;21.30;39.00;;;;;;8290955;28;20087;-41
2022/06/01 03:29:51;;;;;;;;;;;21.30;39.00;;;;;;8291396;28;20394;-41
2022/06/01 03:33:52;;;;;;;1.87;1.60;;;21.20;39.00;;;;;;8290446;28;19909;-41
2022/06/01 03:37:53;;;;;;;2.63;2.00;;;21.20;39.00;;;;;;8290747;28;20034;-41
2022/06/01 03:41:53;;;;;;;1.80;1.67;;;21.20;39.00;;;;;;8290872;28;20517;-41
2022/06/01 03:45:57;;;;;;;2.10;1.90;;;21.20;39.00;;;;;;8290155;28;20297;-41
2022/06/01 03:49:58;;;;;;;2.78;1.85;;;21.30;39.00;;;;;;8290499;28;20510;-41
2022/06/01 03:54:00;;;;;;;2.00;1.50;;;21.20;39.00;;;;;;8290371;28;20037;-41
2022/06/01 03:58:01;;;;;;;2.08;1.70;;;21.20;39.00;;;;;;8290263;28;20041;-41
2022/06/01 04:02:04;;;;;;;2.00;1.77;;;21.20;39.00;;;;;;8290370;28;20376;-41
2022/06/01 04:06:05;;;;;;;2.20;1.67;;;21.20;39.00;;;;;;8290447;28;20042;-41
2022/06/01 04:10:06;;;;;;;2.10;1.73;;;21.20;39.00;;;;;;8289771;28;20045;-41
2022/06/01 04:14:06;;;;;;;2.35;1.70;;;21.20;39.00;;;;;;8294145;28;20096;-41
2022/06/01 04:18:08;;;;;;;2.77;1.70;;;21.20;39.00;;;;;;8295628;28;20093;-41
2022/06/01 04:22:09;;;;;;;;;;;21.20;39.10;;;;;;8296049;28;20042;-41
2022/06/01 04:26:10;;;;;;;1.88;1.65;;;21.30;39.00;;;;;;8295707;28;20058;-41
2022/06/01 04:30:14;;;;;;;2.47;1.90;;;21.30;39.00;;;;;;8295018;28;20491;-41
2022/06/01 04:34:14;;;;;;;1.50;1.40;;;21.40;39.00;;;;;;8295853;28;20099;-41
2022/06/01 04:38:15;;;;;;;1.60;1.50;;;21.40;38.90;;;;;;8295684;28;20022;-40
2022/06/01 04:42:16;;;;;;;1.73;1.47;;;21.40;38.90;;;;;;8294660;28;20076;-41
2022/06/01 04:46:16;;;;;;;1.90;1.70;;;21.50;38.90;;;;;;8294916;28;20036;-40
2022/06/01 04:50:17;;;;;;;2.07;1.50;;;21.50;38.70;;;;;;8294999;28;20056;-41
2022/06/01 04:54:17;;;;;;;1.83;1.60;;;21.60;38.80;;;;;;8294547;28;20715;-40
2022/06/01 04:58:18;;;;;;;1.90;1.47;;;21.70;38.80;;;;;;8294959;28;20084;-41
2022/06/01 05:02:19;;;;;;;1.47;1.37;;;21.70;39.40;;;;;;8294671;28;20545;-41
2022/06/01 05:06:19;;;;;;;2.00;1.53;;;21.70;38.80;;;;;;8294063;28;20129;-40
2022/06/01 05:10:22;;;;;;;2.77;1.40;;;21.70;38.80;;;;;;8294264;28;20046;-41
2022/06/01 05:14:23;;;;;;;2.25;1.45;;;21.70;38.80;;;;;;8294305;28;20506;-41
2022/06/01 05:18:24;;;;;;;1.77;1.50;;;21.70;38.90;;;;;;8293914;28;20100;-40
2022/06/01 05:22:24;;;;;;;1.90;1.58;;;21.70;38.90;;;;;;8294327;28;20479;-41
2022/06/01 05:26:25;;;;;;;1.70;1.60;;;21.70;38.90;;;;;;8293957;28;20042;-41
2022/06/01 05:30:26;;;;;;;1.90;1.60;;;21.70;38.90;;;;;;8293545;28;20046;-40
2022/06/01 05:34:27;;;;;;;2.05;1.80;;;21.70;38.90;;;;;;8293819;28;20033;-40
2022/06/01 05:38:28;;;;;;;2.37;1.90;;;21.70;38.90;;;;;;8293766;28;20030;-40
2022/06/01 05:42:28;;;;;;;1.77;1.53;;;21.70;38.90;;;;;;8292957;28;20163;-40
2022/06/01 05:46:30;;;;;;;1.60;1.40;;;21.70;38.90;;;;;;8293686;28;20273;-40
2022/06/01 05:50:31;;;;;;;1.80;1.65;;;21.60;38.80;;;;;;8293524;28;20164;-41
2022/06/01 05:54:31;;;;;;;1.97;1.73;;;21.70;38.90;;;;;;8293055;28;20022;-40
2022/06/01 05:58:32;;;;;;;1.83;1.53;;;21.60;38.80;;;;;;8292862;28;20076;-40
2022/06/01 06:02:33;;;;;;;2.15;1.60;;;21.70;38.90;;;;;;8292474;28;20053;-44
2022/06/01 06:06:34;;;;;;;1.53;1.40;;;21.60;38.80;;;;;;8292003;28;20080;-41
2022/06/01 06:10:35;;;;;;;;;;;21.60;38.80;;;;;;8292886;28;20038;-40
2022/06/01 06:14:35;;;;;;;2.40;1.60;;;21.60;38.80;;;;;;8292606;28;20375;-40
2022/06/01 06:18:36;;;;;;;1.73;1.60;;;21.60;38.80;;;;;;8291753;28;20038;-40
2022/06/01 06:22:36;;;;;;;1.50;1.40;;;21.60;38.80;;;;;;8291831;28;20030;-40
2022/06/01 06:26:39;;;;;;;1.73;1.40;;;21.60;38.80;;;;;;8292204;28;20050;-40
2022/06/01 06:30:41;;;;;;;2.28;1.90;;;21.60;38.80;;;;;;8291544;28;20057;-40
2022/06/01 06:34:41;;;;;;;2.10;1.75;;;21.60;38.80;;;;;;8292117;28;20030;-41
2022/06/01 06:38:42;;;;;;;2.67;1.70;;;21.60;38.80;;;;;;8291678;28;20034;-40
2022/06/01 06:42:43;;;;;;;1.70;1.60;;;21.70;38.80;;;;;;8291331;28;20030;-40
2022/06/01 06:46:44;;;;;;;1.55;1.45;;;21.70;38.80;;;;;;8291533;28;20045;-40
2022/06/01 06:50:44;;;;;;;2.00;1.77;;;21.70;38.90;;;;;;8291319;28;20053;-40
2022/06/01 06:54:45;;;;;;;2.50;1.67;;;21.70;38.80;;;;;;8291472;28;20036;-40
2022/06/01 06:58:46;;;;;;;1.60;1.50;;;21.70;38.90;;;;;;8291722;28;20117;-40
2022/06/01 07:02:46;;;;;;;1.83;1.48;;;21.70;38.90;;;;;;8291214;28;20431;-40
2022/06/01 07:06:47;;;;;;;1.80;1.70;;;21.60;38.90;;;;;;8304642;28;20086;-40
2022/06/01 07:10:47;;;;;;;1.63;1.40;;;21.70;39.00;;;;;;8323470;28;20056;-40
2022/06/01 07:14:48;;;;;;;1.83;1.60;;;21.70;39.00;;;;;;8323713;28;20080;-40
2022/06/01 07:18:51;;;;;;;1.73;1.40;;;21.60;38.90;;;;;;8323170;28;20095;-41
2022/06/01 07:22:55;;;;;;;1.50;1.40;;;21.70;38.90;;;;;;8323531;28;20087;-40
2022/06/01 07:26:55;;;;;;;1.40;1.30;;;21.70;38.90;;;;;;8323794;28;20038;-40
2022/06/01 07:30:59;;;;;;;2.00;1.60;;;21.70;38.90;;;;;;8322555;28;20048;-40
2022/06/01 07:35:02;;;;;;;2.50;1.80;;;21.70;38.80;;;;;;8323604;28;20087;-40
2022/06/01 07:43:24;;;;;;;1.60;1.50;;;21.70;38.90;;;;;;8322613;28;20149;-40
2022/06/01 07:47:25;;;;;;;2.07;1.87;;;21.70;39.00;;;;;;8324025;28;20383;-40
2022/06/01 07:51:25;;;;;;;2.42;1.70;;;21.70;38.80;;;;;;8328759;28;20041;-40
2022/06/01 07:55:27;;;;;;;1.90;1.70;;;21.70;38.80;;;;;;8329679;28;20040;-41
2022/06/01 07:59:27;;;;;;;;;;;21.70;38.90;;;;;;8329378;28;20029;-41
2022/06/01 08:03:28;;;;;;;2.03;1.40;;;21.70;38.90;;;;;;8328555;28;20337;-41
2022/06/01 08:07:28;;;;;;;1.55;1.45;;;21.70;38.90;;;;;;8328773;28;20040;-41
2022/06/01 08:15:49;;;;;;;1.52;1.40;;;21.80;39.00;;;;;;8328001;28;20040;-41
2022/06/01 08:19:49;;;;;;;1.73;1.60;;;21.80;38.90;;;;;;8328364;28;20056;-41
2022/06/01 08:23:50;;;;;;;1.65;1.55;;;21.80;39.00;;;;;;8328215;28;20303;-41
2022/06/01 08:27:50;;;;;;;2.67;1.70;;;21.80;39.00;;;;;;8327848;28;20415;-41
2022/06/01 08:31:51;;;;;;;1.60;1.50;;;21.80;39.60;;;;;;8328368;28;20049;-41
2022/06/01 08:35:52;;;;;;;1.80;1.70;;;21.80;39.00;;;;;;8327700;28;20483;-41
2022/06/01 08:39:53;;;;;;;2.28;1.90;;;21.80;39.00;;;;;;8327840;28;20033;-41
2022/06/01 08:43:57;;;;;;;2.03;1.60;;;21.80;39.10;;;;;;8327870;28;20041;-41
2022/06/01 08:47:59;;;;;;;3.15;1.40;;;21.90;39.00;;;;;;8327967;28;20427;-41
2022/06/01 08:52:01;;;;;;;1.60;1.50;;;21.90;39.20;;;;;;8327010;28;20509;-40
2022/06/01 08:56:09;;;;;;;2.10;1.42;;;21.90;39.10;;;;;;8327898;28;20033;-40
2022/06/01 09:00:17;;;;;;;2.00;1.55;;;21.90;39.00;;;;;;8326990;28;20042;-40
2022/06/01 09:04:43;;;;;;;1.95;1.52;;;21.90;39.00;;;;;;8327278;28;20079;-40
2022/06/01 09:09:15;;;;;;;1.42;1.33;;;22.00;39.00;;;;;;8327010;28;20080;-42
2022/06/01 09:13:23;;;;;;;1.63;1.30;;;22.00;39.00;;;;;;8326422;28;20557;-40
2022/06/01 09:17:24;;;;;;;1.58;1.45;;;22.00;39.00;;;;;;8327088;28;20154;-41
2022/06/01 09:25:56;;;;;;;2.78;1.90;;;22.10;39.00;;;;;;8327150;28;20046;-41
2022/06/01 09:29:57;;;;;;;2.25;1.77;;;22.00;39.00;;;;;;8326634;28;20049;-41
2022/06/01 09:34:39;;;;;;;1.63;1.40;;;22.10;39.00;;;;;;8326097;28;20068;-41
2022/06/01 09:38:49;;;;;;;1.77;1.40;;;22.10;39.00;;;;;;8276770;28;20038;-40
2022/06/01 09:42:52;;;;;;;1.70;1.58;;;22.10;39.00;;;;;;8325569;28;20068;-41
2022/06/01 09:46:57;;;;;;;1.70;1.40;;;22.10;39.00;;;;;;8326523;28;20055;-41
2022/06/01 09:51:25;;;;;;;2.10;1.52;;;22.10;38.90;;;;;;8326109;28;20491;-41
2022/06/01 09:55:27;;;;;;;1.55;1.42;;;22.10;38.90;;;;;;8325757;28;20034;-41
2022/06/01 10:08:23;;;;;;;1.67;1.48;;;22.20;38.90;;;;;;8325346;28;20513;-41
2022/06/01 10:12:33;;;;;;;1.40;1.30;;;22.20;38.90;;;;;;8323704;28;20033;-41
2022/06/01 10:17:11;;;;;;;2.60;1.70;;;22.20;38.90;;;;;;8324801;28;20044;-41
2022/06/01 10:21:18;;;;;;;2.08;1.67;;;22.20;38.80;;;;;;8324502;28;20060;-41
2022/06/01 10:25:40;;;;;;;1.75;1.65;;;22.20;38.90;;;;;;8324985;28;20519;-41
2022/06/01 10:29:52;;;;;;;1.75;1.60;;;22.20;38.80;;;;;;8303735;28;20392;-41
2022/06/01 10:34:09;;;;;;;1.52;1.42;;;22.30;38.80;;;;;;8324370;28;20548;-41
2022/06/01 10:38:35;;;;;;;1.50;1.40;;;22.20;38.80;;;;;;8324674;28;20041;-41
2022/06/01 10:47:10;;;;;;;3.35;1.35;;;22.30;38.80;;;;;;8324514;28;20405;-40
2022/06/01 10:51:16;;;;;;;1.50;1.40;;;22.30;38.80;;;;;;8323956;28;20326;-42
2022/06/01 10:55:28;;;;;;;1.60;1.40;;;22.30;38.70;;;;;;8324506;28;20120;-41
2022/06/01 10:59:28;;;;;;;1.73;1.25;;;22.30;38.70;;;;;;8323781;28;20490;-40
2022/06/01 11:03:36;;;;;;;1.47;1.37;;;22.30;38.60;;;;;;8323803;28;20041;-41
2022/06/01 11:08:00;;;;;;;1.98;1.73;;;22.30;38.60;;;;;;8324161;28;20057;-40
2022/06/01 11:12:24;;;;;;;1.65;1.48;;;22.30;38.50;;;;;;8322363;28;20049;-40
2022/06/01 11:16:38;;;;;;;1.85;1.50;;;22.30;38.50;;;;;;8323799;28;20040;-42
2022/06/01 11:20:50;;;;;;;1.80;1.60;;;22.30;38.50;;;;;;8323737;28;20115;-40
2022/06/01 11:24:52;;;;;;;1.55;1.45;;;22.30;38.50;;;;;;8329852;28;20425;-40
2022/06/01 11:29:02;;;;;;;1.23;1.13;;;22.30;38.50;;;;;;8330660;28;20042;-40
2022/06/01 11:33:24;;;;;;;1.58;1.30;;;22.30;38.50;;;;;;8329952;28;20048;-40
2022/06/01 11:37:34;;;;;;;1.70;1.50;;;22.30;38.50;;;;;;8329634;28;20034;-40
2022/06/01 11:41:39;;;;;;;1.50;1.40;;;22.30;38.50;;;;;;8330165;28;20111;-40
2022/06/01 11:45:44;;;;;;;1.75;1.60;;;22.20;38.50;;;;;;8329182;28;20117;-40
2022/06/01 11:50:04;;;;;;;1.63;1.52;;;22.30;38.50;;;;;;8329927;28;20175;-40
2022/06/01 11:54:09;;;;;;;1.55;1.45;;;22.20;38.50;;;;;;8329434;28;20067;-41
2022/06/01 11:58:19;;;;;;;1.50;1.40;;;22.30;38.50;;;;;;8329030;28;20053;-41
2022/06/01 12:02:40;;;;;;;1.60;1.40;;;22.30;38.50;;;;;;8329136;28;20120;-41
2022/06/01 12:06:46;;;;;;;1.65;1.55;;;22.20;38.50;;;;;;8328841;28;20037;-41
2022/06/01 12:10:58;;;;;;;1.52;1.42;;;22.20;38.40;;;;;;8328764;28;20045;-41
2022/06/01 12:15:01;;;;;;;;;;;22.20;38.40;;;;;;8329658;28;20030;-41
2022/06/01 12:19:31;;;;;;;1.95;1.35;;;22.20;38.50;;;;;;8328585;28;20336;-41
2022/06/01 12:28:31;;;;;;;1.23;1.13;;;22.20;38.50;;;;;;8258346;28;20046;-41
2022/06/01 12:33:01;;;;;;;1.40;1.30;;;22.20;38.50;;;;;;8294851;28;20065;-41
2022/06/01 12:37:17;;;;;;;1.60;1.50;;;22.20;38.50;;;;;;8327613;28;20116;-41
2022/06/01 12:41:24;;;;;;;1.70;1.30;;;22.20;38.50;;;;;;8327997;28;20042;-41
2022/06/01 12:45:34;;;;;;;3.08;1.40;;;22.20;38.50;;;;;;8327273;28;20149;-40
2022/06/01 12:49:37;;;;;;;1.55;1.45;;;22.20;38.50;;;;;;8327674;28;20058;-40
2022/06/01 12:53:48;;;;;;;1.50;1.38;;;22.20;38.50;;;;;;8327254;28;20033;-39
2022/06/01 12:57:52;;;;;;;2.07;1.60;;;22.20;38.40;;;;;;8326957;28;20075;-40
2022/06/01 13:02:01;;;;;;;1.35;1.25;;;22.20;38.40;;;;;;8327643;28;20083;-40
2022/06/01 13:07:19;;;;;;;1.65;1.50;;;22.20;38.70;;;;;;8330515;27;20571;-41
2022/06/01 13:11:29;;;;;;;1.40;1.30;;;22.20;38.50;;;;;;8321353;28;20033;-39
2022/06/01 13:15:30;;;;;;;1.77;1.67;;;22.20;38.50;;;;;;8319422;28;20398;-40
2022/06/01 13:19:31;;;;;;;1.45;1.35;;;22.20;38.50;;;;;;8319740;28;20041;-40
2022/06/01 13:23:50;;;;;;;1.85;1.67;;;22.20;38.60;;;;;;8319118;28;20038;-45
2022/06/01 13:27:51;;;;;;;1.40;1.30;;;22.10;38.50;;;;;;8318810;28;20064;-40
2022/06/01 13:31:56;;;;;;;2.38;1.50;;;22.10;38.50;;;;;;8319491;28;20034;-40
2022/06/01 13:36:00;;;;;;;1.58;1.40;;;22.10;38.60;;;;;;8317729;28;20042;-40
2022/06/01 13:40:03;;;;;;;1.65;1.30;;;22.10;38.60;;;;;;8318111;28;20045;-40
2022/06/01 13:44:09;;;;;;;1.40;1.30;;;22.10;38.60;;;;;;8319006;28;20073;-40
2022/06/01 13:48:48;;;;;;;1.60;1.50;;;22.10;38.60;;;;;;8318139;28;20029;-40
2022/06/01 13:52:55;;;;;;;1.85;1.40;;;22.10;38.70;;;;;;8314825;28;20038;-40
2022/06/01 13:57:26;;;;;;;1.65;1.25;;;22.10;38.70;;;;;;8318715;28;20392;-40
2022/06/01 14:01:40;;;;;;;1.73;1.48;;;22.10;38.70;;;;;;8347302;28;20184;-40
2022/06/01 14:05:52;;;;;;;1.30;1.20;;;22.10;38.70;;;;;;8350875;28;20056;-40
2022/06/01 14:09:58;;;;;;;1.77;1.40;;;22.10;38.80;;;;;;8350565;28;20349;-40
2022/06/01 14:14:14;;;;;;;1.90;1.65;;;22.10;38.80;;;;;;8350407;28;20041;-40
2022/06/01 14:18:20;;;;;;;2.65;2.17;;;22.10;38.90;;;;;;8330788;28;20030;-41
2022/06/01 14:22:21;;;;;;;1.25;1.13;;;22.10;38.80;;;;;;8328548;28;20060;-40
2022/06/01 14:30:41;;;;;;;1.50;1.25;;;22.10;38.80;;;;;;8327879;28;20048;-41
2022/06/01 14:34:41;;;;;;;1.50;1.40;;;22.10;38.90;;;;;;8328180;28;20061;-41
2022/06/01 14:38:42;;;;;;;3.33;1.80;;;22.10;38.90;;;;;;8328044;28;20041;-41
2022/06/01 14:42:42;;;;;;;1.43;1.33;;;22.10;39.00;;;;;;8327649;28;20025;-41
2022/06/01 14:46:43;;;;;;;1.43;1.13;;;22.10;39.00;;;;;;8327678;28;20284;-40
2022/06/01 14:50:44;;;;;;;1.50;1.40;;;22.10;39.00;;;;;;8327336;28;20124;-42
2022/06/01 14:54:44;;;;;;;1.70;1.40;;;22.10;39.00;;;;;;8327090;28;20120;-40
2022/06/01 14:58:45;;;;;;;1.48;1.38;;;22.10;39.00;;;;;;8327426;28;20403;-41
2022/06/01 15:02:50;;;;;;;2.38;1.92;;;22.10;39.00;;;;;;8327606;28;20025;-48
2022/06/01 15:06:50;;;;;;;1.85;1.65;;;22.10;39.00;;;;;;8326407;28;20128;-42
2022/06/01 15:10:51;;;;;;;1.43;1.33;;;22.10;39.00;;;;;;8326760;28;20045;-42
2022/06/01 15:14:51;;;;;;;3.83;1.50;;;22.10;39.10;;;;;;8327286;28;20034;-43
2022/06/01 15:18:53;;;;;;;2.40;1.50;;;22.10;39.10;;;;;;8326225;28;20030;-41
2022/06/01 15:22:55;;;;;;;1.50;1.40;;;22.10;39.10;;;;;;8326659;28;20120;-41
2022/06/01 15:26:55;;;;;;;1.58;1.48;;;22.20;39.20;;;;;;8325703;28;20593;-41
2022/06/01 15:39:36;;;;;;;1.27;1.10;;;22.20;39.10;;;;;;8325227;28;20052;-42
2022/06/01 15:43:36;;;;;;;1.33;1.15;;;22.30;39.10;;;;;;8326037;28;20034;-42
2022/06/01 15:47:37;;;;;;;1.40;1.30;;;22.30;39.10;;;;;;8326116;28;20516;-41
2022/06/01 15:51:40;;;;;;;1.87;1.37;;;22.40;39.10;;;;;;8325316;28;20089;-41
2022/06/01 15:55:41;;;;;;;1.38;1.27;;;22.40;39.10;;;;;;8325393;28;20083;-40
2022/06/01 15:59:41;;;;;;;1.70;1.60;;;22.40;39.10;;;;;;8325655;28;20396;-40
2022/06/01 16:03:45;;;;;;;3.17;1.60;;;22.40;39.10;;;;;;8324791;28;20038;-41
2022/06/01 16:07:45;;;;;;;1.63;1.50;;;22.40;39.20;;;;;;8325441;28;20042;-40
2022/06/01 16:11:46;;;;;;;1.37;1.27;;;22.40;39.20;;;;;;8301453;28;20120;-42
2022/06/01 16:15:49;;;;;;;1.50;1.40;;;22.40;39.20;;;;;;8306767;28;20029;-41
2022/06/01 16:19:51;;;;;;;1.38;1.27;;;22.40;39.20;;;;;;8321598;28;20030;-42
2022/06/01 16:23:52;;;;;;;1.55;1.45;;;22.40;39.10;;;;;;8295618;28;20044;-41
2022/06/01 16:27:52;;;;;;;1.60;1.50;;;22.40;39.20;;;;;;8292792;28;20038;-41
2022/06/01 16:31:53;;;;;;;1.33;1.23;;;22.40;39.20;;;;;;8291126;28;20411;-41
2022/06/01 16:35:54;;;;;;;1.40;1.20;;;22.40;39.20;;;;;;8291409;28;20034;-41
2022/06/01 16:39:55;;;;;;;1.40;1.30;;;22.30;39.20;;;;;;8290870;28;20041;-40
2022/06/01 16:43:55;;;;;;;1.42;1.33;;;22.40;39.30;;;;;;8291436;28;20471;-40
2022/06/01 16:47:56;;;;;;;1.50;1.40;;;22.30;39.30;;;;;;8292408;28;20042;-42
2022/06/01 16:51:57;;;;;;;;;;;22.30;39.40;;;;;;8292202;28;20120;-40
2022/06/01 16:55:58;;;;;;;1.70;1.60;;;22.30;39.40;;;;;;8307655;28;19913;-41
2022/06/01 16:59:58;;;;;;;1.95;1.17;;;22.30;39.40;;;;;;8297804;28;20415;-41
2022/06/01 17:03:59;;;;;;;1.83;1.53;;;22.30;39.40;;;;;;8303203;28;20042;-41
2022/06/01 17:08:00;;;;;;;1.92;1.48;;;22.30;39.50;;;;;;8290540;28;20124;-41
2022/06/01 17:12:01;;;;;;;1.52;1.42;;;22.30;39.50;;;;;;8301975;28;20050;-42
2022/06/01 17:16:03;;;;;;;2.20;1.37;;;22.30;39.40;;;;;;8294462;28;20033;-40
2022/06/01 17:20:11;;;;;;;2.40;1.80;;;22.20;39.40;;;;;;8292696;28;20038;-40
2022/06/01 17:24:11;;;;;;;2.55;1.70;;;22.20;39.50;;;;;;8289728;28;20613;-40
2022/06/01 17:28:12;;;;;;;2.00;1.40;;;22.20;39.40;;;;;;8291340;28;20033;-40
2022/06/01 17:32:14;;;;;;;2.20;1.67;;;22.20;39.50;;;;;;8318875;28;20292;-40
2022/06/01 17:36:15;;;;;;;1.90;1.60;;;22.20;39.50;;;;;;8308400;28;20030;-40
2022/06/01 17:40:16;;;;;;;2.08;1.80;;;22.20;39.50;;;;;;8315234;28;20037;-41
2022/06/01 17:44:17;;;;;;;2.20;1.75;;;22.20;39.50;;;;;;8296075;28;20061;-41
2022/06/01 17:48:26;;;;;;;1.67;1.40;;;22.20;39.50;;;;;;8292929;28;20048;-41
2022/06/01 17:52:26;;;;;;;1.70;1.40;;;22.20;39.60;;;;;;8305542;28;20033;-41
2022/06/01 17:56:32;;;;;;;2.33;1.70;;;22.20;39.60;;;;;;8302844;28;20391;-41
2022/06/01 18:00:33;;;;;;;4.75;1.83;;;22.20;39.60;;;;;;8298804;28;20037;-42
2022/06/01 18:04:34;;;;;;;2.22;1.85;;;22.20;39.50;;;;;;8300842;28;20498;-41
2022/06/01 18:08:37;;;;;;;2.00;1.73;;;22.20;39.60;;;;;;8295080;28;20034;-41
2022/06/01 18:12:37;;;;;;;2.05;1.60;;;22.20;39.60;;;;;;8294955;28;20044;-42
2022/06/01 18:16:42;;;;;;;3.10;1.60;;;22.10;39.60;;;;;;8308120;28;20521;-40
2022/06/01 18:20:45;;;;;;;1.98;1.42;;;22.10;39.50;;;;;;8312402;28;20034;-42
2022/06/01 18:24:45;;;;;;;3.72;1.80;;;22.10;39.60;;;;;;8296134;28;20077;-42
2022/06/01 18:28:46;;;;;;;2.27;1.67;;;22.10;39.60;;;;;;8298074;28;20077;-42
2022/06/01 18:32:47;;;;;;;4.18;1.60;;;22.10;39.60;;;;;;8297828;28;20068;-42
2022/06/01 18:36:47;;;;;;;1.63;1.53;;;22.10;39.50;;;;;;8299734;28;20108;-42
2022/06/01 18:40:50;;;;;;;2.00;1.60;;;22.10;39.50;;;;;;8326852;28;20072;-42
2022/06/01 18:44:51;;;;;;;1.92;1.73;;;22.10;39.60;;;;;;8307260;28;20136;-41
2022/06/01 18:48:51;;;;;;;2.10;1.73;;;22.10;39.60;;;;;;8326019;28;20038;-42
2022/06/01 18:52:54;;;;;;;3.47;2.47;;;22.10;39.60;;;;;;8309965;28;20038;-42
2022/06/01 18:56:55;;;;;;;2.20;2.00;;;22.10;39.70;;;;;;8296132;28;20061;-42
2022/06/01 19:05:14;;;;;;;1.90;1.65;;;22.10;39.70;;;;;;8294390;28;20057;-41
2022/06/01 19:09:16;;;;;;;1.70;1.60;;;22.10;39.70;;;;;;8293647;28;20105;-42
2022/06/01 19:13:17;;;;;;;2.00;1.80;;;22.10;39.80;;;;;;8304230;28;20099;-41
2022/06/01 19:17:18;;;;;;;;;;;22.10;39.80;;;;;;8306716;28;20438;-41
2022/06/01 19:21:20;;;;;;;3.22;2.35;;;22.00;39.70;;;;;;8304482;28;19916;-41
2022/06/01 19:25:21;;;;;;;2.28;1.70;;;22.00;39.70;;;;;;8299142;28;20470;-42
2022/06/01 19:29:22;;;;;;;;;;;22.00;39.70;;;;;;8295129;28;20037;-41
2022/06/01 19:33:22;;;;;;;1.83;1.60;;;22.00;39.80;;;;;;8322302;28;20000;-41
2022/06/01 19:46:07;;;;;;;1.98;1.60;;;22.00;39.90;;;;;;8325293;28;20477;-41
2022/06/01 19:50:09;;;;;;;2.07;1.87;;;22.00;39.90;;;;;;8326014;28;20061;-41
2022/06/01 19:54:10;;;;;;;1.83;1.73;;;22.00;39.90;;;;;;8325025;28;20637;-41
2022/06/01 19:58:11;;;;;;;;;;;22.00;39.90;;;;;;8326243;28;20041;-41
2022/06/01 20:02:11;;;;;;;1.90;1.70;;;22.00;39.90;;;;;;8325501;28;19913;-42
2022/06/01 20:06:12;;;;;;;2.50;2.20;;;22.00;40.00;;;;;;8324842;28;20212;-41
2022/06/01 20:10:13;;;;;;;2.80;2.10;;;22.00;39.90;;;;;;8325536;28;20025;-41
2022/06/01 20:14:13;;;;;;;3.42;2.33;;;21.90;39.90;;;;;;8324607;28;20037;-42
2022/06/01 20:18:15;;;;;;;2.77;2.50;;;21.90;40.00;;;;;;8324456;28;20036;-41
2022/06/01 20:22:16;;;;;;;3.08;2.78;;;21.90;40.00;;;;;;8324641;28;20037;-42
2022/06/01 20:26:17;;;;;;;3.27;2.57;;;21.90;40.00;;;;;;8324463;28;20038;-41
2022/06/01 20:30:18;;;;;;;3.67;2.60;;;21.90;40.10;;;;;;8324541;28;20500;-42
2022/06/01 20:34:18;;;;;;;3.60;2.47;;;21.90;40.10;;;;;;8324616;28;20034;-41
2022/06/01 20:38:20;;;;;;;2.97;2.50;;;21.90;40.10;;;;;;8324280;28;20033;-41
2022/06/01 20:42:21;;;;;;;3.20;2.25;;;21.90;40.10;;;;;;8323707;28;20030;-41
2022/06/01 20:46:25;;;;;;;;;;;21.90;40.10;;;;;;8324236;28;20052;-41
2022/06/01 20:50:26;;;;;;;2.47;2.17;;;21.90;40.10;;;;;;8324347;28;19909;-42
2022/06/01 20:54:27;;;;;;;3.60;2.70;;;21.90;40.10;;;;;;8323430;28;20129;-41
2022/06/01 20:58:28;;;;;;;2.67;2.13;;;21.90;40.10;;;;;;8324016;28;20041;-41
2022/06/01 21:02:29;;;;;;;2.53;2.33;;;21.90;40.10;;;;;;8323696;28;20482;-41
2022/06/01 21:06:31;;;;;;;1.93;1.83;;;21.90;40.20;;;;;;8323164;28;20120;-41
2022/06/01 21:10:34;;;;;;;3.08;2.40;;;21.80;40.10;;;;;;8324063;28;20396;-41
2022/06/01 21:14:35;;;;;;;2.88;2.25;;;21.90;40.10;;;;;;8323970;28;20115;-41
2022/06/01 21:18:35;;;;;;;2.27;2.07;;;21.90;40.10;;;;;;8323247;28;20047;-41
2022/06/01 21:22:37;;;;;;;2.67;2.43;;;21.90;40.10;;;;;;8323855;28;20124;-41
2022/06/01 21:26:37;;;;;;;2.13;1.95;;;21.80;40.10;;;;;;8325577;28;20045;-41
2022/06/01 21:30:38;;;;;;;3.67;2.20;;;21.80;40.10;;;;;;8330063;28;20029;-41
2022/06/01 21:34:39;;;;;;;2.50;2.30;;;21.80;40.10;;;;;;8330123;28;20037;-42
2022/06/01 21:38:40;;;;;;;2.10;1.90;;;21.80;40.10;;;;;;8329738;28;20041;-42
2022/06/01 21:42:41;;;;;;;2.23;1.80;;;21.80;40.20;;;;;;8329121;28;20380;-41
2022/06/01 21:46:41;;;;;;;4.13;2.33;;;21.80;40.20;;;;;;8329536;28;20797;-41
2022/06/01 21:50:42;;;;;;;2.17;1.97;;;21.80;40.20;;;;;;8329876;28;20045;-41
2022/06/01 21:54:44;;;;;;;2.40;2.10;;;21.80;40.20;;;;;;8328975;28;20041;-41
2022/06/01 21:58:45;;;;;;;2.40;2.20;;;21.80;40.20;;;;;;8329165;28;20121;-41
2022/06/01 22:02:45;;;;;;;2.80;2.35;;;21.80;40.10;;;;;;8329084;28;20498;-42
2022/06/01 22:06:46;;;;;;;2.30;2.00;;;21.80;40.10;;;;;;8328025;28;20045;-41
2022/06/01 22:15:06;;;;;;;3.05;2.00;;;21.80;40.20;;;;;;8328796;28;20108;-41
2022/06/01 22:19:07;;;;;;;2.65;2.13;;;21.70;40.10;;;;;;8328509;28;20137;-42
2022/06/01 22:23:07;;;;;;;3.83;2.40;;;21.70;40.20;;;;;;8328618;28;20033;-41
2022/06/01 22:27:08;;;;;;;3.23;2.07;;;21.70;40.20;;;;;;8327555;28;20378;-42